createdAt,value
2023-05-03T00:02:40.852Z,7.35
2023-05-03T00:07:44.211Z,7.93
2023-05-03T00:12:46.249Z,7.93
2023-05-03T00:17:48.361Z,8.25
2023-05-03T00:22:50.430Z,8.35
2023-05-03T00:27:52.469Z,8.65
2023-05-03T00:32:54.690Z,8.15
2023-05-03T00:37:56.859Z,8.88
2023-05-03T00:42:59.056Z,8.95
2023-05-03T00:48:01.882Z,7.90
2023-05-03T00:53:04.215Z,9.05
2023-05-03T00:58:06.347Z,7.97
2023-05-03T01:03:08.537Z,7.50
2023-05-03T01:08:31.211Z,7.22
2023-05-03T01:13:43.073Z,7.55
2023-05-03T01:18:49.410Z,6.65
2023-05-03T01:24:17.627Z,6.80
2023-05-03T01:29:19.597Z,7.75
2023-05-03T01:34:33.798Z,9.07
2023-05-03T01:39:49.169Z,8.15
2023-05-03T01:44:51.463Z,6.20
2023-05-03T01:49:53.500Z,7.10
2023-05-03T01:54:55.629Z,7.88
2023-05-03T01:59:57.608Z,8.27
2023-05-03T02:04:59.672Z,8.60
2023-05-03T02:10:01.961Z,8.15
2023-05-03T02:15:04.184Z,8.70
2023-05-03T02:20:06.584Z,8.38
2023-05-03T02:25:08.757Z,7.88
2023-05-03T02:30:10.923Z,6.80
2023-05-03T02:35:12.951Z,7.65
2023-05-03T02:40:16.004Z,7.85
2023-05-03T02:45:18.260Z,7.63
2023-05-03T02:50:20.474Z,7.43
2023-05-03T02:55:23.209Z,6.43
2023-05-03T03:00:25.278Z,5.55
2023-05-03T03:05:27.341Z,5.45
2023-05-03T03:10:29.369Z,5.90
2023-05-03T03:15:31.426Z,6.43
2023-05-03T03:20:33.661Z,6.97
2023-05-03T03:25:35.857Z,7.57
2023-05-03T03:30:37.901Z,7.72
2023-05-03T03:35:40.202Z,6.65
2023-05-03T03:40:42.216Z,5.60
2023-05-03T03:45:44.306Z,6.05
2023-05-03T03:50:46.350Z,6.20
2023-05-03T03:55:48.738Z,6.38
2023-05-03T04:00:52.313Z,5.95
2023-05-03T04:05:54.344Z,5.93
2023-05-03T04:10:56.657Z,5.38
2023-05-03T04:15:58.721Z,5.38
2023-05-03T04:21:01.076Z,5.43
2023-05-03T04:26:04.847Z,5.50
2023-05-03T04:31:07.663Z,6.38
2023-05-03T04:36:09.865Z,5.05
2023-05-03T04:41:13.444Z,6.07
2023-05-03T04:46:17.746Z,5.70
2023-05-03T04:51:19.844Z,5.65
2023-05-03T04:56:26.628Z,5.75
2023-05-03T05:01:28.989Z,5.82
2023-05-03T05:06:31.924Z,6.03
2023-05-03T05:11:34.332Z,5.85
2023-05-03T05:16:36.544Z,6.15
2023-05-03T05:21:39.034Z,5.38
2023-05-03T05:26:42.372Z,6.00
2023-05-03T05:31:44.470Z,4.85
2023-05-03T05:36:46.855Z,4.30
2023-05-03T05:41:49.186Z,3.13
2023-05-03T05:46:51.675Z,3.15
2023-05-03T05:51:53.952Z,2.45
2023-05-03T05:56:56.222Z,2.60
2023-05-03T06:02:00.514Z,2.60
2023-05-03T06:07:02.916Z,2.70
2023-05-03T06:12:05.177Z,2.33
2023-05-03T06:17:07.784Z,3.35
2023-05-03T06:22:09.929Z,3.00
2023-05-03T06:27:12.105Z,3.20
2023-05-03T06:32:14.551Z,3.38
2023-05-03T06:37:18.868Z,2.85
2023-05-03T06:42:21.546Z,3.28
2023-05-03T06:47:23.545Z,3.10
2023-05-03T06:52:25.907Z,3.38
2023-05-03T06:57:28.945Z,3.65
2023-05-03T07:02:31.235Z,3.97
2023-05-03T07:07:33.713Z,4.00
2023-05-03T07:12:35.921Z,3.75
2023-05-03T07:17:38.057Z,4.00
2023-05-03T07:22:40.489Z,4.45
2023-05-03T07:27:42.464Z,4.68
2023-05-03T07:32:45.419Z,4.60
2023-05-03T07:43:12.981Z,4.28
2023-05-03T07:48:15.282Z,4.78
2023-05-03T07:53:17.372Z,4.68
2023-05-03T07:58:25.376Z,4.55
2023-05-03T08:03:36.390Z,4.75
2023-05-03T08:08:38.723Z,4.25
2023-05-03T08:13:41.830Z,4.70
2023-05-03T08:18:44.075Z,5.18
2023-05-03T08:23:46.807Z,5.25
2023-05-03T08:28:49.000Z,5.13
2023-05-03T08:33:56.269Z,4.68
2023-05-03T08:38:58.484Z,5.40
2023-05-03T08:44:01.718Z,4.53
2023-05-03T08:49:04.416Z,4.60
2023-05-03T08:54:06.990Z,4.40
2023-05-03T08:59:09.747Z,4.78
2023-05-03T09:04:12.464Z,3.90
2023-05-03T09:09:14.919Z,4.45
2023-05-03T09:14:18.099Z,3.58
2023-05-03T09:19:21.836Z,4.13
2023-05-03T09:24:24.077Z,4.07
2023-05-03T09:29:34.613Z,4.22
2023-05-03T09:34:37.622Z,3.97
2023-05-03T09:39:39.779Z,2.95
2023-05-03T09:44:43.098Z,3.53
2023-05-03T09:49:45.252Z,3.38
2023-05-03T09:54:48.169Z,4.00
2023-05-03T09:59:51.230Z,3.80
2023-05-03T10:04:54.366Z,3.42
2023-05-03T10:09:59.200Z,3.80
2023-05-03T10:15:02.454Z,4.35
2023-05-03T10:26:14.927Z,3.90
2023-05-03T10:31:49.135Z,4.50
2023-05-03T10:36:53.829Z,4.43
2023-05-03T10:42:04.543Z,4.30
2023-05-03T10:47:19.117Z,3.70
2023-05-03T10:52:36.613Z,5.00
2023-05-03T10:57:41.918Z,5.20
2023-05-03T11:03:14.141Z,4.90
2023-05-03T11:08:18.855Z,4.72
2023-05-03T11:13:21.218Z,4.53
2023-05-03T11:18:27.359Z,5.05
2023-05-03T11:23:30.296Z,4.68
2023-05-03T11:28:32.857Z,5.43
2023-05-03T11:33:36.920Z,5.82
2023-05-03T11:38:40.486Z,4.88
2023-05-03T11:43:44.417Z,4.55
2023-05-03T11:48:49.418Z,4.50
2023-05-03T11:53:52.766Z,4.28
2023-05-03T11:58:57.894Z,4.53
2023-05-03T12:04:05.897Z,4.38
2023-05-03T12:09:18.411Z,5.10
2023-05-03T12:14:25.019Z,5.63
2023-05-03T12:19:32.907Z,5.15
2023-05-03T12:24:38.838Z,5.50
2023-05-03T12:29:42.050Z,6.13
2023-05-03T12:34:46.751Z,4.65
2023-05-03T12:39:58.460Z,4.05
2023-05-03T12:45:15.243Z,5.18
2023-05-03T12:50:19.040Z,4.25
2023-05-03T12:55:25.449Z,4.28
2023-05-03T13:00:35.592Z,4.15
2023-05-03T13:05:39.667Z,4.75
2023-05-03T13:10:43.371Z,4.75
2023-05-03T13:15:45.794Z,5.25
2023-05-03T13:20:49.538Z,4.80
2023-05-03T13:25:54.662Z,5.93
2023-05-03T13:30:57.605Z,5.05
2023-05-03T13:36:00.040Z,4.85
2023-05-03T13:41:08.926Z,4.38
2023-05-03T13:46:11.497Z,5.88
2023-05-03T13:51:14.568Z,4.80
2023-05-03T13:56:18.170Z,5.40
2023-05-03T14:01:20.696Z,5.40
2023-05-03T14:06:26.114Z,6.70
2023-05-03T14:11:29.051Z,6.03
2023-05-03T14:16:41.010Z,6.40
2023-05-03T14:21:45.636Z,6.68
2023-05-03T14:26:48.661Z,1.73
2023-05-03T14:31:51.004Z,1.52
2023-05-03T14:36:53.300Z,1.60
2023-05-03T14:41:56.517Z,1.77
2023-05-03T14:46:59.474Z,2.20
2023-05-03T14:52:02.057Z,2.33
2023-05-03T14:57:05.104Z,2.38
2023-05-03T15:02:07.508Z,2.00
2023-05-03T15:07:10.190Z,2.03
2023-05-03T15:12:12.462Z,1.90
2023-05-03T15:17:14.742Z,1.45
2023-05-03T15:22:17.748Z,2.47
2023-05-03T15:27:20.150Z,2.20
2023-05-03T15:32:22.565Z,2.80
2023-05-03T15:37:33.858Z,3.50
2023-05-03T15:42:37.115Z,2.13
2023-05-03T15:47:39.572Z,2.20
2023-05-03T15:52:42.640Z,1.50
2023-05-03T15:57:45.956Z,1.20
2023-05-03T16:02:48.307Z,1.35
2023-05-03T16:07:51.332Z,1.60
2023-05-03T16:12:53.695Z,1.50
2023-05-03T16:17:56.903Z,1.25
2023-05-03T16:22:59.228Z,1.55
2023-05-03T16:28:02.385Z,1.50
2023-05-03T16:33:05.231Z,1.70
2023-05-03T16:38:10.654Z,2.00
2023-05-03T16:43:12.912Z,1.45
2023-05-03T16:48:15.945Z,1.15
2023-05-03T16:53:18.308Z,1.73
2023-05-03T16:58:21.321Z,1.33
2023-05-03T17:03:23.658Z,2.00
2023-05-03T17:08:26.529Z,2.30
2023-05-03T17:13:28.838Z,2.53
2023-05-03T17:18:31.891Z,2.92
2023-05-03T17:23:36.582Z,1.88
2023-05-03T17:28:39.141Z,1.70
2023-05-03T17:33:41.331Z,1.73
2023-05-03T17:38:43.608Z,1.70
2023-05-03T17:43:45.969Z,2.22
2023-05-03T17:48:48.931Z,2.10
2023-05-03T17:53:55.487Z,2.55
2023-05-03T17:58:58.186Z,2.17
2023-05-03T18:04:01.241Z,2.80
2023-05-03T18:09:06.273Z,2.50
2023-05-03T18:14:09.498Z,3.42
2023-05-03T18:19:13.009Z,4.45
2023-05-03T18:24:16.524Z,2.92
2023-05-03T18:29:18.937Z,2.53
2023-05-03T18:34:21.382Z,3.03
2023-05-03T18:39:23.654Z,3.35
2023-05-03T18:44:26.782Z,3.08
2023-05-03T18:49:29.188Z,4.18
2023-05-03T18:54:32.529Z,4.03
2023-05-03T18:59:38.457Z,4.03
2023-05-03T19:04:45.344Z,5.30
2023-05-03T19:09:47.951Z,4.35
2023-05-03T19:14:50.422Z,4.10
2023-05-03T19:19:52.748Z,8.20
2023-05-03T19:24:55.170Z,7.30
2023-05-03T19:29:58.400Z,4.95
2023-05-03T19:35:00.581Z,2.95
2023-05-03T19:40:03.180Z,4.25
2023-05-03T19:45:06.294Z,2.75
2023-05-03T19:50:08.884Z,2.78
2023-05-03T19:55:11.954Z,3.28
2023-05-03T20:00:17.970Z,2.58
2023-05-03T20:05:20.422Z,3.03
2023-05-03T20:10:22.900Z,2.92
2023-05-03T20:15:25.052Z,3.40
2023-05-03T20:20:27.643Z,3.17
2023-05-03T20:25:29.810Z,3.45
2023-05-03T20:30:33.418Z,3.90
2023-05-03T20:35:38.225Z,3.50
2023-05-03T20:40:40.441Z,3.72
2023-05-03T20:45:42.678Z,3.10
2023-05-03T20:50:44.868Z,3.58
2023-05-03T20:55:47.101Z,3.97
2023-05-03T21:00:52.072Z,2.92
2023-05-03T21:05:54.381Z,3.42
2023-05-03T21:10:56.740Z,3.92
2023-05-03T21:15:59.043Z,3.97
2023-05-03T21:21:01.391Z,3.30
2023-05-03T21:26:04.181Z,3.08
2023-05-03T21:31:06.348Z,3.85
2023-05-03T21:36:08.758Z,3.20
2023-05-03T21:41:11.285Z,3.35
2023-05-03T21:46:13.584Z,4.70
2023-05-03T21:51:23.401Z,2.50
2023-05-03T22:01:27.662Z,3.25
2023-05-03T22:06:31.420Z,3.28
2023-05-03T22:11:33.656Z,2.60
2023-05-03T22:16:42.308Z,2.50
2023-05-03T22:21:44.460Z,2.28
2023-05-03T22:26:46.872Z,2.17
2023-05-03T22:31:49.164Z,2.20
2023-05-03T22:36:51.620Z,2.22
2023-05-03T22:41:53.949Z,1.73
2023-05-03T22:46:56.253Z,2.03
2023-05-03T22:51:58.458Z,2.08
2023-05-03T22:57:00.798Z,2.38
2023-05-03T23:02:02.981Z,1.98
2023-05-03T23:07:05.451Z,2.53
2023-05-03T23:12:08.094Z,1.92
2023-05-03T23:17:11.139Z,2.47
2023-05-03T23:22:13.673Z,2.70
2023-05-03T23:27:16.150Z,2.80
2023-05-03T23:32:18.633Z,2.53
2023-05-03T23:37:21.552Z,2.53
2023-05-03T23:42:23.803Z,2.08
2023-05-03T23:47:26.378Z,2.03
2023-05-03T23:52:28.687Z,1.63
2023-05-03T23:57:30.871Z,2.10
